North Oaks, Indiana
Current Conditions -  °F | °C
As of 2:15 AM on Wednesday 22 Oct 2014 (Local Time) from KHHG Reporting Station
Clear Clear  
Wind Chill: 39°   Ceiling: Unl
Heat Index: 39°   Visibility: 10mi
Dew Point: 36°   Wind: 3mph
Humidity: 88%   Direction: 360°N
Pressure: 30.22"   Gusts: NA
Location:  40.7175°N, 85.1549°W
Report Text: KHHG 220615Z AUTO 36003KT 10SM CLR 04/02 A3022 RMK AO2 T00390020
Loading
Personal Weather Stations






























Interactive Weather Map
Tropical Storm Tracking
New forecast layout! Learn more

10-Day Weather Forecast

Advertisements
Track Severe Weather on mobile